sensor_id;sensor_type;location;lat;lon;timestamp;pressure;altitude;pressure_sealevel;temperature;humidity
17054;BME280;8643;48.824;11.422;2022-07-29T00:00:50;96923.47;;;20.88;70.42
17054;BME280;8643;48.824;11.422;2022-07-29T00:03:19;96913.53;;;20.73;75.02
17054;BME280;8643;48.824;11.422;2022-07-29T00:05:48;96924.66;;;20.44;78.46
17054;BME280;8643;48.824;11.422;2022-07-29T00:08:16;96913.16;;;20.35;80.72
17054;BME280;8643;48.824;11.422;2022-07-29T00:10:44;96912.34;;;20.34;81.35
17054;BME280;8643;48.824;11.422;2022-07-29T00:13:12;96909.56;;;20.45;81.48
17054;BME280;8643;48.824;11.422;2022-07-29T00:15:42;96900.03;;;20.46;81.64
17054;BME280;8643;48.824;11.422;2022-07-29T00:18:11;96903.63;;;20.36;83.51
17054;BME280;8643;48.824;11.422;2022-07-29T00:20:40;96888.53;;;20.26;84.84
17054;BME280;8643;48.824;11.422;2022-07-29T00:23:08;96879.38;;;20.18;85.62
17054;BME280;8643;48.824;11.422;2022-07-29T00:25:40;96882.16;;;20.32;85.67
17054;BME280;8643;48.824;11.422;2022-07-29T00:28:08;96883.34;;;20.35;85.89
17054;BME280;8643;48.824;11.422;2022-07-29T00:30:37;96873.81;;;20.47;85.29
17054;BME280;8643;48.824;11.422;2022-07-29T00:33:05;96878.56;;;20.50;84.84
17054;BME280;8643;48.824;11.422;2022-07-29T00:35:36;96871.03;;;20.40;85.29
17054;BME280;8643;48.824;11.422;2022-07-29T00:38:16;96868.25;;;20.36;86.27
17054;BME280;8643;48.824;11.422;2022-07-29T00:40:45;96867.06;;;20.48;85.42
17054;BME280;8643;48.824;11.422;2022-07-29T00:43:15;96855.53;;;20.46;85.73
17054;BME280;8643;48.824;11.422;2022-07-29T00:45:45;96845.19;;;20.50;85.47
17054;BME280;8643;48.824;11.422;2022-07-29T00:48:14;96836.47;;;20.55;84.83
17054;BME280;8643;48.824;11.422;2022-07-29T00:50:44;96827.69;;;20.53;84.97
17054;BME280;8643;48.824;11.422;2022-07-29T00:53:12;96826.94;;;20.35;87.03
17054;BME280;8643;48.824;11.422;2022-07-29T00:55:41;96828.16;;;20.26;87.42
17054;BME280;8643;48.824;11.422;2022-07-29T00:58:12;96819.03;;;20.15;88.33
17054;BME280;8643;48.824;11.422;2022-07-29T01:00:42;96812.66;;;20.11;89.14
17054;BME280;8643;48.824;11.422;2022-07-29T01:03:11;96807.91;;;20.08;88.69
17054;BME280;8643;48.824;11.422;2022-07-29T01:05:44;96797.59;;;20.05;88.75
17054;BME280;8643;48.824;11.422;2022-07-29T01:08:18;96793.22;;;20.04;88.55
17054;BME280;8643;48.824;11.422;2022-07-29T01:10:49;96795.59;;;20.09;88.65
17054;BME280;8643;48.824;11.422;2022-07-29T01:13:18;96787.25;;;20.09;88.82
17054;BME280;8643;48.824;11.422;2022-07-29T01:15:54;96780.50;;;20.03;89.91
17054;BME280;8643;48.824;11.422;2022-07-29T01:18:32;96770.19;;;19.92;89.53
17054;BME280;8643;48.824;11.422;2022-07-29T01:21:38;96759.47;;;19.94;88.71
17054;BME280;8643;48.824;11.422;2022-07-29T01:27:25;96768.19;;;19.75;88.72
17054;BME280;8643;48.824;11.422;2022-07-29T01:30:03;96764.59;;;19.46;89.96
17054;BME280;8643;48.824;11.422;2022-07-29T01:32:38;96761.81;;;19.42;89.50
17054;BME280;8643;48.824;11.422;2022-07-29T01:35:16;96761.41;;;19.47;88.41
17054;BME280;8643;48.824;11.422;2022-07-29T01:37:50;96775.28;;;19.40;93.03
17054;BME280;8643;48.824;11.422;2022-07-29T01:40:24;96789.19;;;19.36;91.45
17054;BME280;8643;48.824;11.422;2022-07-29T01:42:58;96792.34;;;19.42;90.67
17054;BME280;8643;48.824;11.422;2022-07-29T01:45:41;96790.41;;;19.71;89.81
17054;BME280;8643;48.824;11.422;2022-07-29T01:48:15;96773.72;;;19.75;89.90
17054;BME280;8643;48.824;11.422;2022-07-29T01:50:50;96780.91;;;19.76;91.02
17054;BME280;8643;48.824;11.422;2022-07-29T01:53:29;96795.53;;;19.51;90.53
17054;BME280;8643;48.824;11.422;2022-07-29T01:56:06;96795.16;;;19.53;89.92
17054;BME280;8643;48.824;11.422;2022-07-29T01:58:41;96790.38;;;19.46;90.60
17054;BME280;8643;48.824;11.422;2022-07-29T02:01:13;96780.84;;;19.47;92.37
17054;BME280;8643;48.824;11.422;2022-07-29T02:03:45;96784.41;;;19.30;92.89
17054;BME280;8643;48.824;11.422;2022-07-29T02:06:19;96783.19;;;19.23;91.84
17054;BME280;8643;48.824;11.422;2022-07-29T02:08:51;96773.66;;;19.24;92.19
17054;BME280;8643;48.824;11.422;2022-07-29T02:11:20;96775.25;;;19.29;92.10
17054;BME280;8643;48.824;11.422;2022-07-29T02:13:52;96763.34;;;19.18;92.31
17054;BME280;8643;48.824;11.422;2022-07-29T02:16:26;96763.72;;;19.09;92.92
17054;BME280;8643;48.824;11.422;2022-07-29T02:18:59;96760.53;;;19.00;93.98
17054;BME280;8643;48.824;11.422;2022-07-29T02:21:30;96759.34;;;18.94;94.64
17054;BME280;8643;48.824;11.422;2022-07-29T02:24:01;96751.78;;;18.94;94.82
17054;BME280;8643;48.824;11.422;2022-07-29T02:26:33;96744.25;;;18.95;93.45
17054;BME280;8643;48.824;11.422;2022-07-29T02:29:02;96742.69;;;18.94;93.68
17054;BME280;8643;48.824;11.422;2022-07-29T02:31:34;96745.03;;;18.84;93.42
17054;BME280;8643;48.824;11.422;2022-07-29T02:34:08;96743.03;;;18.89;95.27
17054;BME280;8643;48.824;11.422;2022-07-29T02:36:37;96734.34;;;18.90;94.63
17054;BME280;8643;48.824;11.422;2022-07-29T02:39:08;96733.50;;;18.82;94.16
17054;BME280;8643;48.824;11.422;2022-07-29T02:41:44;96752.47;;;18.66;94.89
17054;BME280;8643;48.824;11.422;2022-07-29T02:44:14;96758.44;;;18.75;95.21
17054;BME280;8643;48.824;11.422;2022-07-29T02:46:54;96761.28;;;18.93;95.59
17054;BME280;8643;48.824;11.422;2022-07-29T02:49:35;96768.81;;;18.89;96.68
17054;BME280;8643;48.824;11.422;2022-07-29T02:52:10;96782.31;;;18.91;97.19
17054;BME280;8643;48.824;11.422;2022-07-29T02:54:46;96794.59;;;18.93;97.47
17054;BME280;8643;48.824;11.422;2022-07-29T02:57:22;96799.00;;;19.09;97.69
17054;BME280;8643;48.824;11.422;2022-07-29T02:59:56;96803.84;;;19.30;96.13
17054;BME280;8643;48.824;11.422;2022-07-29T03:02:28;96805.41;;;19.34;95.11
17054;BME280;8643;48.824;11.422;2022-07-29T03:05:01;96811.34;;;19.18;97.21
17054;BME280;8643;48.824;11.422;2022-07-29T03:07:33;96812.91;;;19.19;97.46
17054;BME280;8643;48.824;11.422;2022-07-29T03:10:04;96817.28;;;19.13;98.62
17054;BME280;8643;48.824;11.422;2022-07-29T03:12:37;96823.63;;;19.21;98.50
17054;BME280;8643;48.824;11.422;2022-07-29T03:15:08;96839.09;;;19.18;99.55
17054;BME280;8643;48.824;11.422;2022-07-29T03:17:39;96836.31;;;19.26;99.89
17054;BME280;8643;48.824;11.422;2022-07-29T03:20:10;96853.81;;;19.30;99.34
17054;BME280;8643;48.824;11.422;2022-07-29T03:22:41;96855.38;;;19.34;100.00
17054;BME280;8643;48.824;11.422;2022-07-29T03:25:12;96837.94;;;19.23;100.00
17054;BME280;8643;48.824;11.422;2022-07-29T03:27:41;96843.81;;;19.14;100.00
17054;BME280;8643;48.824;11.422;2022-07-29T03:30:11;96845.00;;;19.10;100.00
17054;BME280;8643;48.824;11.422;2022-07-29T03:32:50;96846.16;;;19.01;100.00
17054;BME280;8643;48.824;11.422;2022-07-29T03:35:19;96837.03;;;19.01;100.00
17054;BME280;8643;48.824;11.422;2022-07-29T03:37:47;96836.19;;;18.90;100.00
17054;BME280;8643;48.824;11.422;2022-07-29T03:40:22;96842.44;;;18.76;100.00
17054;BME280;8643;48.824;11.422;2022-07-29T03:42:55;96840.84;;;18.75;100.00
17054;BME280;8643;48.824;11.422;2022-07-29T03:45:25;96841.53;;;18.61;100.00
17054;BME280;8643;48.824;11.422;2022-07-29T03:48:01;96841.91;;;18.56;100.00
17054;BME280;8643;48.824;11.422;2022-07-29T03:50:31;96837.09;;;18.45;100.00
17054;BME280;8643;48.824;11.422;2022-07-29T03:53:02;96838.34;;;18.52;100.00
17054;BME280;8643;48.824;11.422;2022-07-29T03:55:37;96831.97;;;18.47;100.00
17054;BME280;8643;48.824;11.422;2022-07-29T03:58:09;96839.09;;;18.48;100.00
17054;BME280;8643;48.824;11.422;2022-07-29T04:00:40;96831.19;;;18.47;100.00
17054;BME280;8643;48.824;11.422;2022-07-29T04:03:12;96837.47;;;18.37;100.00
17054;BME280;8643;48.824;11.422;2022-07-29T04:05:41;96837.00;;;18.31;100.00
17054;BME280;8643;48.824;11.422;2022-07-29T04:08:10;96831.81;;;18.26;100.00
17054;BME280;8643;48.824;11.422;2022-07-29T04:10:38;96835.00;;;18.28;100.00
17054;BME280;8643;48.824;11.422;2022-07-29T04:13:06;96838.91;;;18.20;100.00
17054;BME280;8643;48.824;11.422;2022-07-29T04:15:35;96837.38;;;18.26;100.00
17054;BME280;8643;48.824;11.422;2022-07-29T04:18:03;96835.75;;;18.25;100.00
17054;BME280;8643;48.824;11.422;2022-07-29T04:20:34;96838.91;;;18.20;100.00
17054;BME280;8643;48.824;11.422;2022-07-29T04:23:02;96835.38;;;18.23;100.00
17054;BME280;8643;48.824;11.422;2022-07-29T04:25:30;96836.53;;;18.22;100.00
17054;BME280;8643;48.824;11.422;2022-07-29T04:27:58;96831.72;;;18.11;100.00
17054;BME280;8643;48.824;11.422;2022-07-29T04:30:32;96830.50;;;18.09;100.00
17054;BME280;8643;48.824;11.422;2022-07-29T04:33:02;96834.09;;;18.13;100.00
17054;BME280;8643;48.824;11.422;2022-07-29T04:35:36;96841.56;;;18.05;100.00
17054;BME280;8643;48.824;11.422;2022-07-29T04:38:16;96832.84;;;18.07;100.00
17054;BME280;8643;48.824;11.422;2022-07-29T04:40:44;96834.38;;;17.97;100.00
17054;BME280;8643;48.824;11.422;2022-07-29T04:43:16;96830.47;;;18.05;100.00
17054;BME280;8643;48.824;11.422;2022-07-29T04:45:49;96834.88;;;18.13;100.00
17054;BME280;8643;48.824;11.422;2022-07-29T04:48:17;96835.66;;;18.10;100.00
17054;BME280;8643;48.824;11.422;2022-07-29T04:50:53;96836.09;;;18.16;100.00
17054;BME280;8643;48.824;11.422;2022-07-29T04:53:22;96834.22;;;18.31;100.00
17054;BME280;8643;48.824;11.422;2022-07-29T04:55:51;96841.38;;;18.32;100.00
17054;BME280;8643;48.824;11.422;2022-07-29T04:58:19;96843.38;;;18.35;100.00
17054;BME280;8643;48.824;11.422;2022-07-29T05:00:50;96831.06;;;18.32;100.00
17054;BME280;8643;48.824;11.422;2022-07-29T05:03:19;96835.78;;;18.28;100.00
17054;BME280;8643;48.824;11.422;2022-07-29T05:05:47;96833.84;;;18.29;100.00
17054;BME280;8643;48.824;11.422;2022-07-29T05:08:17;96839.38;;;18.29;100.00
17054;BME280;8643;48.824;11.422;2022-07-29T05:10:45;96836.59;;;18.25;100.00
17054;BME280;8643;48.824;11.422;2022-07-29T05:13:14;96835.75;;;18.21;100.00
17054;BME280;8643;48.824;11.422;2022-07-29T05:15:43;96835.00;;;18.28;100.00
17054;BME280;8643;48.824;11.422;2022-07-29T05:18:11;96837.09;;;18.45;100.00
17054;BME280;8643;48.824;11.422;2022-07-29T05:20:41;96834.78;;;18.55;100.00
17054;BME280;8643;48.824;11.422;2022-07-29T05:23:09;96837.63;;;18.65;100.00
17054;BME280;8643;48.824;11.422;2022-07-29T05:25:41;96838.06;;;18.75;100.00
17054;BME280;8643;48.824;11.422;2022-07-29T05:28:11;96831.81;;;18.89;100.00
17054;BME280;8643;48.824;11.422;2022-07-29T05:30:40;96831.47;;;18.94;100.00
17054;BME280;8643;48.824;11.422;2022-07-29T05:33:08;96843.81;;;19.07;100.00
17054;BME280;8643;48.824;11.422;2022-07-29T05:35:57;96847.75;;;19.10;100.00
17054;BME280;8643;48.824;11.422;2022-07-29T05:38:27;96848.59;;;19.17;100.00
17054;BME280;8643;48.824;11.422;2022-07-29T05:40:58;96849.44;;;19.29;100.00
17054;BME280;8643;48.824;11.422;2022-07-29T05:43:27;96847.47;;;19.44;100.00
17054;BME280;8643;48.824;11.422;2022-07-29T05:45:57;96847.09;;;19.49;100.00
17054;BME280;8643;48.824;11.422;2022-07-29T05:48:25;96843.56;;;19.66;100.00
17054;BME280;8643;48.824;11.422;2022-07-29T05:50:54;96849.94;;;19.70;100.00
17054;BME280;8643;48.824;11.422;2022-07-29T05:53:23;96851.13;;;19.73;100.00
17054;BME280;8643;48.824;11.422;2022-07-29T05:55:51;96847.59;;;19.90;100.00
17054;BME280;8643;48.824;11.422;2022-07-29T05:58:21;96848.00;;;19.96;100.00
17054;BME280;8643;48.824;11.422;2022-07-29T06:00:49;96850.00;;;20.17;100.00
17054;BME280;8643;48.824;11.422;2022-07-29T06:03:17;96861.09;;;20.39;100.00
17054;BME280;8643;48.824;11.422;2022-07-29T06:05:46;96861.88;;;20.68;100.00
17054;BME280;8643;48.824;11.422;2022-07-29T06:08:14;96859.06;;;20.82;100.00
17054;BME280;8643;48.824;11.422;2022-07-29T06:10:43;96860.97;;;21.14;99.60
17054;BME280;8643;48.824;11.422;2022-07-29T06:13:12;96862.00;;;21.46;97.03
17054;BME280;8643;48.824;11.422;2022-07-29T06:15:44;96867.53;;;21.60;94.86
17054;BME280;8643;48.824;11.422;2022-07-29T06:18:12;96867.88;;;21.66;95.72
17054;BME280;8643;48.824;11.422;2022-07-29T06:20:41;96872.72;;;21.54;97.84
17054;BME280;8643;48.824;11.422;2022-07-29T06:23:09;96865.34;;;21.93;97.53
17054;BME280;8643;48.824;11.422;2022-07-29T06:25:39;96856.16;;;22.48;95.89
17054;BME280;8643;48.824;11.422;2022-07-29T06:28:08;96851.13;;;22.74;90.96
17054;BME280;8643;48.824;11.422;2022-07-29T06:30:36;96851.16;;;23.09;91.40
17054;BME280;8643;48.824;11.422;2022-07-29T06:33:06;96852.97;;;23.26;89.33
17054;BME280;8643;48.824;11.422;2022-07-29T06:35:35;96854.84;;;23.64;88.78
17054;BME280;8643;48.824;11.422;2022-07-29T06:38:08;96853.59;;;23.99;86.73
17054;BME280;8643;48.824;11.422;2022-07-29T06:40:58;96859.03;;;24.57;83.58
17054;BME280;8643;48.824;11.422;2022-07-29T06:43:32;96857.31;;;24.87;81.55
17054;BME280;8643;48.824;11.422;2022-07-29T06:46:19;96856.66;;;24.99;82.67
17054;BME280;8643;48.824;11.422;2022-07-29T06:48:50;96856.28;;;24.77;77.09
17054;BME280;8643;48.824;11.422;2022-07-29T06:51:20;96864.25;;;24.55;80.46
17054;BME280;8643;48.824;11.422;2022-07-29T06:53:50;96867.34;;;25.04;80.32
17054;BME280;8643;48.824;11.422;2022-07-29T06:56:30;96860.88;;;25.31;75.96
17054;BME280;8643;48.824;11.422;2022-07-29T06:59:07;96857.25;;;24.67;74.26
17054;BME280;8643;48.824;11.422;2022-07-29T07:01:36;96867.69;;;24.66;82.64
17054;BME280;8643;48.824;11.422;2022-07-29T07:04:08;96865.31;;;25.29;77.16
17054;BME280;8643;48.824;11.422;2022-07-29T07:06:37;96872.28;;;25.60;75.16
17054;BME280;8643;48.824;11.422;2022-07-29T07:09:06;96867.97;;;25.56;76.66
17054;BME280;8643;48.824;11.422;2022-07-29T07:11:34;96863.44;;;25.42;73.12
17054;BME280;8643;48.824;11.422;2022-07-29T07:14:02;96870.84;;;25.89;73.24
17054;BME280;8643;48.824;11.422;2022-07-29T07:16:31;96870.47;;;26.23;73.80
17054;BME280;8643;48.824;11.422;2022-07-29T07:19:00;96878.63;;;26.67;66.95
17054;BME280;8643;48.824;11.422;2022-07-29T07:21:29;96877.81;;;26.33;66.57
17054;BME280;8643;48.824;11.422;2022-07-29T07:23:59;96873.69;;;26.22;65.66
17054;BME280;8643;48.824;11.422;2022-07-29T07:26:28;96880.91;;;25.86;69.29
17054;BME280;8643;48.824;11.422;2022-07-29T07:28:56;96873.88;;;26.47;68.23
17054;BME280;8643;48.824;11.422;2022-07-29T07:31:25;96868.16;;;27.13;72.95
17054;BME280;8643;48.824;11.422;2022-07-29T07:33:54;96867.72;;;27.15;61.86
17054;BME280;8643;48.824;11.422;2022-07-29T07:36:23;96860.53;;;27.14;65.23
17054;BME280;8643;48.824;11.422;2022-07-29T07:38:52;96869.25;;;27.32;66.64
17054;BME280;8643;48.824;11.422;2022-07-29T07:41:21;96857.28;;;27.57;63.27
17054;BME280;8643;48.824;11.422;2022-07-29T07:43:50;96856.75;;;27.63;57.57
17054;BME280;8643;48.824;11.422;2022-07-29T07:46:18;96860.38;;;27.04;65.06
17054;BME280;8643;48.824;11.422;2022-07-29T07:48:46;96851.66;;;27.70;60.84
17054;BME280;8643;48.824;11.422;2022-07-29T07:51:15;96854.03;;;27.72;57.60
17054;BME280;8643;48.824;11.422;2022-07-29T07:53:43;96866.34;;;27.06;66.38
17054;BME280;8643;48.824;11.422;2022-07-29T07:56:13;96872.28;;;26.30;66.60
17054;BME280;8643;48.824;11.422;2022-07-29T07:58:42;96863.34;;;26.35;60.65
17054;BME280;8643;48.824;11.422;2022-07-29T08:01:10;96867.41;;;26.34;60.28
17054;BME280;8643;48.824;11.422;2022-07-29T08:03:38;96866.66;;;27.08;58.53
17054;BME280;8643;48.824;11.422;2022-07-29T08:06:07;96864.31;;;28.04;68.51
17054;BME280;8643;48.824;11.422;2022-07-29T08:08:35;96865.78;;;28.09;62.07
17054;BME280;8643;48.824;11.422;2022-07-29T08:11:04;96862.47;;;28.49;54.25
17054;BME280;8643;48.824;11.422;2022-07-29T08:13:38;96860.06;;;28.73;63.14
17054;BME280;8643;48.824;11.422;2022-07-29T08:16:07;96859.91;;;28.89;54.37
17054;BME280;8643;48.824;11.422;2022-07-29T08:18:44;96853.84;;;29.13;57.35
17054;BME280;8643;48.824;11.422;2022-07-29T08:21:14;96852.00;;;28.62;56.73
17054;BME280;8643;48.824;11.422;2022-07-29T08:23:44;96846.75;;;27.87;54.31
17054;BME280;8643;48.824;11.422;2022-07-29T08:26:25;96844.13;;;27.54;56.86
17054;BME280;8643;48.824;11.422;2022-07-29T08:28:55;96844.59;;;27.91;55.59
17054;BME280;8643;48.824;11.422;2022-07-29T08:31:23;96837.06;;;27.75;54.15
17054;BME280;8643;48.824;11.422;2022-07-29T08:33:52;96844.25;;;27.89;60.04
17054;BME280;8643;48.824;11.422;2022-07-29T08:36:20;96842.66;;;28.52;53.27
17054;BME280;8643;48.824;11.422;2022-07-29T08:38:48;96854.41;;;28.12;52.94
17054;BME280;8643;48.824;11.422;2022-07-29T08:41:18;96858.34;;;28.15;57.19
17054;BME280;8643;48.824;11.422;2022-07-29T08:43:48;96855.59;;;28.98;58.63
17054;BME280;8643;48.824;11.422;2022-07-29T08:46:19;96862.38;;;29.98;55.81
17054;BME280;8643;48.824;11.422;2022-07-29T08:48:48;96863.75;;;30.34;50.33
17054;BME280;8643;48.824;11.422;2022-07-29T08:51:19;96865.16;;;30.98;47.25
17054;BME280;8643;48.824;11.422;2022-07-29T08:53:49;96872.50;;;30.17;51.85
17054;BME280;8643;48.824;11.422;2022-07-29T08:56:20;96870.41;;;30.40;47.50
17054;BME280;8643;48.824;11.422;2022-07-29T08:58:49;96871.50;;;30.43;47.72
17054;BME280;8643;48.824;11.422;2022-07-29T09:01:24;96868.22;;;29.28;56.68
17054;BME280;8643;48.824;11.422;2022-07-29T09:04:06;96864.44;;;30.47;50.24
17054;BME280;8643;48.824;11.422;2022-07-29T09:06:42;96859.19;;;28.98;49.96
17054;BME280;8643;48.824;11.422;2022-07-29T09:09:11;96864.94;;;30.14;49.58
17054;BME280;8643;48.824;11.422;2022-07-29T09:11:42;96868.69;;;30.02;47.92
17054;BME280;8643;48.824;11.422;2022-07-29T09:14:12;96866.06;;;30.26;50.79
17054;BME280;8643;48.824;11.422;2022-07-29T09:16:51;96873.22;;;30.00;47.79
17054;BME280;8643;48.824;11.422;2022-07-29T09:19:27;96859.28;;;28.73;51.22
17054;BME280;8643;48.824;11.422;2022-07-29T09:21:58;96859.38;;;28.82;50.60
17054;BME280;8643;48.824;11.422;2022-07-29T09:24:36;96851.25;;;28.84;50.93
17054;BME280;8643;48.824;11.422;2022-07-29T09:27:20;96850.78;;;29.20;47.11
17054;BME280;8643;48.824;11.422;2022-07-29T09:29:57;96856.69;;;29.00;46.46
17054;BME280;8643;48.824;11.422;2022-07-29T09:32:28;96856.28;;;30.00;48.64
17054;BME280;8643;48.824;11.422;2022-07-29T09:35:17;96853.03;;;30.10;47.11
17054;BME280;8643;48.824;11.422;2022-07-29T09:37:46;96848.53;;;31.00;43.76
17054;BME280;8643;48.824;11.422;2022-07-29T09:40:18;96844.91;;;31.09;47.43
17054;BME280;8643;48.824;11.422;2022-07-29T09:42:47;96850.56;;;31.09;45.08
17054;BME280;8643;48.824;11.422;2022-07-29T09:45:28;96844.72;;;32.01;45.56
17054;BME280;8643;48.824;11.422;2022-07-29T09:47:59;96847.34;;;32.47;42.20
17054;BME280;8643;48.824;11.422;2022-07-29T09:50:42;96841.28;;;31.17;41.76
17054;BME280;8643;48.824;11.422;2022-07-29T09:53:11;96840.38;;;30.33;43.06
17054;BME280;8643;48.824;11.422;2022-07-29T09:55:47;96848.88;;;29.93;44.02
17054;BME280;8643;48.824;11.422;2022-07-29T09:58:20;96844.56;;;29.79;43.66
17054;BME280;8643;48.824;11.422;2022-07-29T10:00:52;96848.66;;;31.24;41.28
17054;BME280;8643;48.824;11.422;2022-07-29T10:03:23;96846.75;;;29.53;43.41
17054;BME280;8643;48.824;11.422;2022-07-29T10:06:07;96841.34;;;28.06;47.67
17054;BME280;8643;48.824;11.422;2022-07-29T10:08:36;96848.13;;;28.21;49.98
17054;BME280;8643;48.824;11.422;2022-07-29T10:11:13;96835.84;;;28.76;50.12
17054;BME280;8643;48.824;11.422;2022-07-29T10:13:43;96835.16;;;28.71;49.76
17054;BME280;8643;48.824;11.422;2022-07-29T10:16:13;96833.53;;;29.18;48.67
17054;BME280;8643;48.824;11.422;2022-07-29T10:18:44;96832.59;;;28.51;47.67
17054;BME280;8643;48.824;11.422;2022-07-29T10:21:13;96835.00;;;28.88;47.16
17054;BME280;8643;48.824;11.422;2022-07-29T10:24:04;96841.19;;;29.40;46.57
17054;BME280;8643;48.824;11.422;2022-07-29T10:26:41;96835.53;;;29.40;44.45
17054;BME280;8643;48.824;11.422;2022-07-29T10:29:11;96835.53;;;28.96;44.60
17054;BME280;8643;48.824;11.422;2022-07-29T10:31:51;96830.56;;;29.00;44.97
17054;BME280;8643;48.824;11.422;2022-07-29T10:34:46;96823.88;;;29.51;44.12
17054;BME280;8643;48.824;11.422;2022-07-29T10:37:26;96835.16;;;30.13;42.04
17054;BME280;8643;48.824;11.422;2022-07-29T10:40:11;96825.69;;;29.35;44.54
17054;BME280;8643;48.824;11.422;2022-07-29T10:43:16;96828.19;;;28.98;44.02
17054;BME280;8643;48.824;11.422;2022-07-29T10:45:48;96821.47;;;28.61;44.17
17054;BME280;8643;48.824;11.422;2022-07-29T10:48:24;96821.78;;;29.95;51.05
17054;BME280;8643;48.824;11.422;2022-07-29T10:50:55;96819.97;;;30.20;45.11
17054;BME280;8643;48.824;11.422;2022-07-29T10:53:46;96822.56;;;30.64;41.26
17054;BME280;8643;48.824;11.422;2022-07-29T10:56:24;96818.91;;;31.66;38.55
17054;BME280;8643;48.824;11.422;2022-07-29T10:59:25;96822.81;;;29.57;42.07
17054;BME280;8643;48.824;11.422;2022-07-29T11:02:02;96815.34;;;28.14;44.52
17054;BME280;8643;48.824;11.422;2022-07-29T11:05:12;96813.06;;;29.80;46.41
17054;BME280;8643;48.824;11.422;2022-07-29T11:08:25;96813.19;;;30.17;41.77
17054;BME280;8643;48.824;11.422;2022-07-29T11:11:34;96812.56;;;30.82;43.48
17054;BME280;8643;48.824;11.422;2022-07-29T11:14:04;96806.00;;;31.65;38.22
17054;BME280;8643;48.824;11.422;2022-07-29T11:17:00;96796.78;;;32.79;37.49
17054;BME280;8643;48.824;11.422;2022-07-29T11:19:34;96804.00;;;33.64;44.96
17054;BME280;8643;48.824;11.422;2022-07-29T11:22:09;96809.69;;;34.50;39.15
17054;BME280;8643;48.824;11.422;2022-07-29T11:24:44;96797.91;;;30.93;41.60
17054;BME280;8643;48.824;11.422;2022-07-29T11:27:35;96799.78;;;31.33;41.09
17054;BME280;8643;48.824;11.422;2022-07-29T11:30:08;96792.66;;;31.65;41.30
17054;BME280;8643;48.824;11.422;2022-07-29T11:32:39;96786.06;;;31.59;44.11
17054;BME280;8643;48.824;11.422;2022-07-29T11:35:14;96779.03;;;31.36;39.86
17054;BME280;8643;48.824;11.422;2022-07-29T11:37:45;96780.66;;;30.53;41.87
17054;BME280;8643;48.824;11.422;2022-07-29T11:40:24;96780.34;;;31.16;40.08
17054;BME280;8643;48.824;11.422;2022-07-29T11:42:53;96773.25;;;31.82;38.60
17054;BME280;8643;48.824;11.422;2022-07-29T11:45:25;96775.16;;;30.96;39.63
17054;BME280;8643;48.824;11.422;2022-07-29T11:48:16;96791.84;;;31.65;41.74
17054;BME280;8643;48.824;11.422;2022-07-29T11:50:59;96786.19;;;32.56;36.51
17054;BME280;8643;48.824;11.422;2022-07-29T11:53:47;96784.03;;;32.50;39.48
17054;BME280;8643;48.824;11.422;2022-07-29T11:56:21;96781.88;;;32.21;38.40
17054;BME280;8643;48.824;11.422;2022-07-29T11:59:03;96785.72;;;33.20;41.06
17054;BME280;8643;48.824;11.422;2022-07-29T12:01:34;96789.13;;;32.85;39.65
17054;BME280;8643;48.824;11.422;2022-07-29T12:04:04;96781.63;;;32.01;39.23
17054;BME280;8643;48.824;11.422;2022-07-29T12:06:33;96786.72;;;31.54;39.68
17054;BME280;8643;48.824;11.422;2022-07-29T12:09:07;96777.91;;;31.94;39.83
17054;BME280;8643;48.824;11.422;2022-07-29T12:11:42;96778.75;;;32.43;41.86
17054;BME280;8643;48.824;11.422;2022-07-29T12:14:27;96765.44;;;33.28;35.64
17054;BME280;8643;48.824;11.422;2022-07-29T12:16:55;96776.81;;;32.88;40.13
17054;BME280;8643;48.824;11.422;2022-07-29T12:19:25;96780.25;;;32.78;40.60
17054;BME280;8643;48.824;11.422;2022-07-29T12:21:55;96774.34;;;33.20;35.21
17054;BME280;8643;48.824;11.422;2022-07-29T12:24:43;96778.16;;;32.06;37.80
17054;BME280;8643;48.824;11.422;2022-07-29T12:27:17;96792.28;;;30.65;36.86
17054;BME280;8643;48.824;11.422;2022-07-29T12:29:58;96785.63;;;29.50;37.46
17054;BME280;8643;48.824;11.422;2022-07-29T12:32:32;96786.25;;;28.78;38.89
17054;BME280;8643;48.824;11.422;2022-07-29T12:35:05;96770.84;;;28.70;41.15
17054;BME280;8643;48.824;11.422;2022-07-29T12:37:36;96770.84;;;28.70;41.71
17054;BME280;8643;48.824;11.422;2022-07-29T12:40:09;96771.09;;;28.50;41.09
17054;BME280;8643;48.824;11.422;2022-07-29T12:42:39;96765.94;;;28.01;42.52
17054;BME280;8643;48.824;11.422;2022-07-29T12:45:08;96750.50;;;28.18;43.91
17054;BME280;8643;48.824;11.422;2022-07-29T12:47:51;96765.38;;;27.67;43.56
17054;BME280;8643;48.824;11.422;2022-07-29T12:50:20;96759.09;;;27.63;44.37
17054;BME280;8643;48.824;11.422;2022-07-29T12:52:52;96756.00;;;28.22;45.77
17054;BME280;8643;48.824;11.422;2022-07-29T12:55:42;96758.63;;;27.90;46.22
17054;BME280;8643;48.824;11.422;2022-07-29T12:58:12;96757.94;;;28.12;46.84
17054;BME280;8643;48.824;11.422;2022-07-29T13:00:40;96756.81;;;27.96;47.07
17054;BME280;8643;48.824;11.422;2022-07-29T13:03:09;96754.88;;;28.19;48.75
17054;BME280;8643;48.824;11.422;2022-07-29T13:05:43;96744.00;;;27.95;46.10
17054;BME280;8643;48.824;11.422;2022-07-29T13:08:17;96746.94;;;27.53;47.56
17054;BME280;8643;48.824;11.422;2022-07-29T13:10:48;96743.13;;;27.60;47.55
17054;BME280;8643;48.824;11.422;2022-07-29T13:13:18;96755.94;;;27.61;47.96
17054;BME280;8643;48.824;11.422;2022-07-29T13:16:05;96757.38;;;27.91;47.00
17054;BME280;8643;48.824;11.422;2022-07-29T13:18:35;96759.09;;;28.02;45.16
17054;BME280;8643;48.824;11.422;2022-07-29T13:21:12;96758.41;;;27.85;45.06
17054;BME280;8643;48.824;11.422;2022-07-29T13:23:42;96769.44;;;27.53;47.18
17054;BME280;8643;48.824;11.422;2022-07-29T13:26:11;96768.88;;;27.71;46.16
17054;BME280;8643;48.824;11.422;2022-07-29T13:28:41;96769.19;;;27.60;46.99
17054;BME280;8643;48.824;11.422;2022-07-29T13:31:11;96769.94;;;27.22;48.56